Time;durP1;ratioP1;P1;durP2;ratioP2;P2;SDS_P1;SDS_P2;PMS_P1;PMS_P2;Temp;Humidity;BMP_temperature;BMP_pressure;BME280_temperature;BME280_humidity;BME280_pressure;Samples;Min_cycle;Max_cycle;Signal;HPM_P1;HPM_P2
2024/04/21 00:01:23;;;;;;;1.73;0.68;;;14.80;72.70;;;;;;4530234;26;20016;-54
2024/04/21 00:04:06;;;;;;;2.42;0.93;;;14.80;72.70;;;;;;4513546;26;20017;-54
2024/04/21 00:06:46;;;;;;;3.72;1.13;;;14.80;72.80;;;;;;4559792;25;20074;-52
2024/04/21 00:09:29;;;;;;;2.28;0.88;;;14.80;72.60;;;;;;4561698;25;20012;-51
2024/04/21 00:12:12;;;;;;;7.00;1.10;;;14.80;72.70;;;;;;4558397;25;20043;-52
2024/04/21 00:14:54;;;;;;;2.35;0.77;;;14.80;72.80;;;;;;4560554;25;20493;-52
2024/04/21 00:17:35;;;;;;;3.03;0.75;;;14.80;73.00;;;;;;4549568;25;20038;-52
2024/04/21 00:20:18;;;;;;;1.15;0.30;;;14.80;72.90;;;;;;4557003;25;20069;-52
2024/04/21 00:22:58;;;;;;;0.60;0.40;;;14.80;72.20;;;;;;4560151;25;20074;-52
2024/04/21 00:25:41;;;;;;;3.00;0.60;;;14.70;72.10;;;;;;4529228;26;20012;-55
2024/04/21 00:28:24;;;;;;;2.90;0.40;;;14.70;72.10;;;;;;4500024;26;20673;-49
2024/04/21 00:31:07;;;;;;;2.65;0.50;;;14.70;72.30;;;;;;4508786;26;20017;-50
2024/04/21 00:33:47;;;;;;;1.98;0.60;;;14.70;72.50;;;;;;4529663;26;20074;-48
2024/04/21 00:36:30;;;;;;;1.38;0.63;;;14.70;72.40;;;;;;4531004;26;20415;-48
2024/04/21 00:39:11;;;;;;;1.17;0.55;;;14.70;72.50;;;;;;4553365;25;20016;-51
2024/04/21 00:41:53;;;;;;;0.65;0.28;;;14.60;73.20;;;;;;4561284;25;20086;-47
2024/04/21 00:44:37;;;;;;;5.32;0.65;;;14.70;73.10;;;;;;4561240;25;20016;-48
2024/04/21 00:47:20;;;;;;;1.33;0.45;;;14.70;73.50;;;;;;4561051;25;20045;-50
2024/04/21 00:50:00;;;;;;;8.18;0.63;;;14.70;73.50;;;;;;4556184;25;20064;-51
2024/04/21 00:52:43;;;;;;;1.27;0.55;;;14.70;74.70;;;;;;4561644;25;20012;-53
2024/04/21 00:55:24;;;;;;;0.70;0.40;;;14.60;73.90;;;;;;4561272;25;20073;-51
2024/04/21 00:58:09;;;;;;;1.70;0.30;;;14.60;75.00;;;;;;4561690;25;20013;-55
2024/04/21 01:00:52;;;;;;;2.22;0.30;;;14.70;75.20;;;;;;4558513;25;20136;-53
2024/04/21 01:03:37;;;;;;;1.13;0.52;;;14.70;74.00;;;;;;4561324;25;20460;-52
2024/04/21 01:06:17;;;;;;;1.05;0.38;;;14.60;74.10;;;;;;4558867;25;20050;-53
2024/04/21 01:09:01;;;;;;;0.85;0.68;;;14.60;74.20;;;;;;4557358;25;20408;-52
2024/04/21 01:11:51;;;;;;;0.55;0.50;;;14.60;74.00;;;;;;4559184;25;20012;-55
2024/04/21 01:14:31;;;;;;;0.88;0.30;;;14.60;74.30;;;;;;4548551;25;20027;-55
2024/04/21 01:17:16;;;;;;;0.82;0.50;;;14.60;74.40;;;;;;4560355;25;20005;-52
2024/04/21 01:19:57;;;;;;;1.85;0.40;;;14.60;74.20;;;;;;4559388;25;20038;-51
2024/04/21 01:22:48;;;;;;;3.30;0.95;;;14.60;74.40;;;;;;4560807;25;20362;-54
2024/04/21 01:25:34;;;;;;;0.80;0.55;;;14.60;74.50;;;;;;4559265;25;20011;-51
2024/04/21 01:28:15;;;;;;;1.80;0.40;;;14.60;74.60;;;;;;4531639;26;20063;-51
2024/04/21 01:30:58;;;;;;;1.65;0.30;;;14.60;74.90;;;;;;4504913;26;20059;-48
2024/04/21 01:33:38;;;;;;;0.55;0.50;;;14.60;74.90;;;;;;4558591;26;20012;-48
2024/04/21 01:36:21;;;;;;;0.45;0.45;;;14.60;74.60;;;;;;4558152;26;20019;-49
2024/04/21 01:39:04;;;;;;;1.42;0.60;;;14.60;74.80;;;;;;4528921;26;20013;-49
2024/04/21 01:41:48;;;;;;;1.92;0.77;;;14.60;73.00;;;;;;4524418;26;20074;-52
2024/04/21 01:44:29;;;;;;;2.38;0.80;;;14.50;71.30;;;;;;4527727;26;20536;-49
2024/04/21 01:47:12;;;;;;;2.92;0.80;;;14.50;74.40;;;;;;4548351;25;20062;-52
2024/04/21 01:49:53;;;;;;;0.98;0.80;;;14.40;76.60;;;;;;4557717;25;20308;-48
2024/04/21 01:52:36;;;;;;;4.05;0.95;;;;;;;;;;4558064;25;20065;-48
2024/04/21 01:55:19;;;;;;;3.08;0.73;;;14.30;85.20;;;;;;4554580;25;20007;-51
2024/04/21 01:58:04;;;;;;;2.17;1.05;;;14.20;76.40;;;;;;4559216;25;20012;-47
2024/04/21 02:00:45;;;;;;;1.40;0.57;;;14.20;76.30;;;;;;4557485;25;20037;-47
2024/04/21 02:03:28;;;;;;;0.88;0.60;;;14.10;75.10;;;;;;4559246;25;20008;-49
2024/04/21 02:06:08;;;;;;;3.80;0.60;;;14.10;74.60;;;;;;4557945;25;20054;-47
2024/04/21 02:08:51;;;;;;;1.65;0.68;;;14.00;74.00;;;;;;4551762;26;20382;-52
2024/04/21 02:11:34;;;;;;;1.88;0.60;;;14.00;74.10;;;;;;4551689;25;20012;-50
2024/04/21 02:14:17;;;;;;;2.85;0.70;;;14.00;75.30;;;;;;4553667;25;20009;-50
2024/04/21 02:16:57;;;;;;;1.98;0.80;;;14.00;75.60;;;;;;4550732;25;20046;-48
2024/04/21 02:19:39;;;;;;;2.25;0.90;;;13.90;74.30;;;;;;4556724;25;20038;-50
2024/04/21 02:22:20;;;;;;;3.53;1.00;;;13.90;74.10;;;;;;4558180;25;20308;-50
2024/04/21 02:25:03;;;;;;;4.43;1.10;;;13.90;75.80;;;;;;4555813;25;20011;-49
2024/04/21 02:27:49;;;;;;;3.03;0.90;;;13.90;77.50;;;;;;4518115;25;20036;-49
2024/04/21 02:30:29;;;;;;;2.50;0.70;;;13.90;77.10;;;;;;4554122;25;20038;-48
2024/04/21 02:33:12;;;;;;;2.28;0.80;;;13.90;76.60;;;;;;4557973;25;20074;-49
2024/04/21 02:35:53;;;;;;;1.73;1.00;;;13.90;78.50;;;;;;4558649;25;20073;-48
2024/04/21 02:38:37;;;;;;;2.65;0.60;;;13.90;79.40;;;;;;4528135;26;20525;-49
2024/04/21 02:41:17;;;;;;;2.72;1.00;;;13.90;79.50;;;;;;4525786;26;20326;-47
2024/04/21 02:44:03;;;;;;;3.72;0.85;;;13.90;79.70;;;;;;4526110;26;20333;-49
2024/04/21 02:46:43;;;;;;;3.60;0.90;;;13.90;80.00;;;;;;4527279;26;20013;-47
2024/04/21 02:49:26;;;;;;;2.90;0.82;;;13.90;80.00;;;;;;4551628;25;20127;-52
2024/04/21 02:52:06;;;;;;;4.30;1.00;;;13.80;81.10;;;;;;4556813;25;20003;-51
2024/04/21 02:54:49;;;;;;;3.13;0.88;;;13.90;82.10;;;;;;4528189;26;20074;-50
2024/04/21 02:57:31;;;;;;;3.30;1.13;;;13.90;82.30;;;;;;4557106;25;20012;-48
2024/04/21 03:00:17;;;;;;;1.77;0.70;;;13.90;82.90;;;;;;4548383;25;20013;-47
2024/04/21 03:02:58;;;;;;;3.97;0.70;;;13.90;82.50;;;;;;4555471;25;20037;-48
2024/04/21 03:05:41;;;;;;;2.95;0.73;;;13.90;83.20;;;;;;4555649;25;20042;-47
2024/04/21 03:08:21;;;;;;;1.58;0.85;;;13.90;83.60;;;;;;4556049;25;20710;-50
2024/04/21 03:11:05;;;;;;;1.33;0.60;;;13.90;83.00;;;;;;4556725;25;20043;-48
2024/04/21 03:13:46;;;;;;;1.27;0.73;;;13.90;82.80;;;;;;4555215;25;20031;-48
2024/04/21 03:16:32;;;;;;;1.70;0.77;;;13.90;83.10;;;;;;4556555;25;20073;-48
2024/04/21 03:19:12;;;;;;;0.70;0.63;;;13.90;83.10;;;;;;4556418;25;20077;-48
2024/04/21 03:21:56;;;;;;;1.17;0.73;;;13.90;84.00;;;;;;4554096;25;20414;-51
2024/04/21 03:24:37;;;;;;;2.55;0.95;;;13.90;84.20;;;;;;4556777;25;20042;-47
2024/04/21 03:27:19;;;;;;;1.42;0.50;;;14.00;85.80;;;;;;4528606;26;20013;-52
2024/04/21 03:30:00;;;;;;;2.78;0.90;;;14.10;86.10;;;;;;4557464;25;20138;-48
2024/04/21 03:32:45;;;;;;;0.85;0.60;;;14.20;86.20;;;;;;4558490;25;20023;-53
2024/04/21 03:35:26;;;;;;;3.47;0.80;;;14.30;85.60;;;;;;4557644;25;20090;-54
2024/04/21 03:38:09;;;;;;;1.58;0.70;;;14.30;85.90;;;;;;4558678;25;20081;-52
2024/04/21 03:40:51;;;;;;;1.17;0.50;;;14.40;85.80;;;;;;4555040;25;20042;-52
2024/04/21 03:43:35;;;;;;;2.15;1.00;;;14.40;85.80;;;;;;4558962;25;20013;-51
2024/04/21 03:46:22;;;;;;;2.85;0.52;;;14.40;85.80;;;;;;4558348;25;20345;-55
2024/04/21 03:49:06;;;;;;;2.00;0.88;;;14.40;86.00;;;;;;4554065;25;20013;-52
2024/04/21 03:51:49;;;;;;;1.50;0.70;;;14.40;86.60;;;;;;4557564;25;20033;-52
2024/04/21 03:54:29;;;;;;;2.13;0.82;;;14.40;87.30;;;;;;4517759;25;20024;-48
2024/04/21 03:57:12;;;;;;;2.00;0.80;;;14.50;87.30;;;;;;4524978;26;20336;-49
2024/04/21 03:59:53;;;;;;;1.40;0.70;;;14.60;87.00;;;;;;4524948;26;20008;-52
2024/04/21 04:02:36;;;;;;;2.50;0.68;;;14.60;86.90;;;;;;4501247;26;20521;-50
2024/04/21 04:05:19;;;;;;;2.40;1.10;;;14.60;86.70;;;;;;4518296;26;20013;-49
2024/04/21 04:08:01;;;;;;;0.95;0.50;;;14.70;86.90;;;;;;4523857;26;20012;-51
2024/04/21 04:10:43;;;;;;;1.90;0.90;;;14.70;87.20;;;;;;4520883;25;20031;-50
2024/04/21 04:13:26;;;;;;;2.28;1.13;;;14.80;87.40;;;;;;4553977;25;20053;-49
2024/04/21 04:16:06;;;;;;;1.67;1.08;;;14.90;87.10;;;;;;4552760;25;20047;-48
2024/04/21 04:18:49;;;;;;;2.17;0.73;;;15.00;86.60;;;;;;4555078;25;20069;-50
2024/04/21 04:21:32;;;;;;;3.50;1.00;;;15.00;86.60;;;;;;4552678;25;20016;-48
2024/04/21 04:24:15;;;;;;;3.67;0.82;;;15.10;86.80;;;;;;4518566;26;20463;-53
2024/04/21 04:26:55;;;;;;;1.70;0.70;;;15.10;86.70;;;;;;4555950;25;20074;-52
2024/04/21 04:29:38;;;;;;;2.35;0.90;;;15.10;86.40;;;;;;4521443;26;20017;-54
2024/04/21 04:32:18;;;;;;;1.77;0.65;;;15.10;86.40;;;;;;4519601;26;20015;-54
2024/04/21 04:35:01;;;;;;;6.00;1.00;;;15.10;86.20;;;;;;4541924;26;20015;-51
2024/04/21 04:37:44;;;;;;;1.10;0.70;;;15.10;86.80;;;;;;4554597;25;20454;-52
2024/04/21 04:40:27;;;;;;;3.88;0.75;;;15.00;86.90;;;;;;4557393;25;20077;-52
2024/04/21 04:43:07;;;;;;;1.63;1.20;;;15.10;86.80;;;;;;4542911;25;20012;-51
2024/04/21 04:45:50;;;;;;;1.85;0.88;;;15.10;86.40;;;;;;4551423;25;20015;-53
2024/04/21 04:48:30;;;;;;;2.25;1.10;;;15.10;86.40;;;;;;4558732;25;20035;-51
2024/04/21 04:51:16;;;;;;;3.17;1.00;;;15.10;86.40;;;;;;4551592;25;20073;-51
2024/04/21 04:53:59;;;;;;;2.55;1.00;;;15.10;86.60;;;;;;4559332;25;20289;-53
2024/04/21 04:56:42;;;;;;;3.65;1.10;;;15.10;86.60;;;;;;4554735;25;20012;-54
2024/04/21 04:59:22;;;;;;;4.05;1.10;;;15.20;86.70;;;;;;4557842;25;20038;-55
2024/04/21 05:02:05;;;;;;;3.70;1.05;;;15.20;86.50;;;;;;4556907;25;20069;-52
2024/04/21 05:04:46;;;;;;;2.22;1.05;;;15.20;86.20;;;;;;4554881;25;20012;-55
2024/04/21 05:07:29;;;;;;;3.35;1.10;;;15.30;86.20;;;;;;4543454;25;20016;-54
2024/04/21 05:10:13;;;;;;;2.35;0.95;;;15.30;86.90;;;;;;4549248;25;20012;-52
2024/04/21 05:12:57;;;;;;;3.55;1.63;;;15.30;86.30;;;;;;4540067;26;20074;-54
2024/04/21 05:15:37;;;;;;;2.53;0.98;;;15.30;86.20;;;;;;4555572;25;21035;-51
2024/04/21 05:18:20;;;;;;;6.40;1.17;;;15.30;85.90;;;;;;4555682;25;20127;-48
2024/04/21 05:21:00;;;;;;;3.70;1.30;;;15.40;86.40;;;;;;4558102;25;20040;-51
2024/04/21 05:23:44;;;;;;;5.10;1.92;;;15.50;86.50;;;;;;4549802;25;20011;-50
2024/04/21 05:26:27;;;;;;;2.42;0.93;;;15.50;86.30;;;;;;4552036;25;20016;-48
2024/04/21 05:29:10;;;;;;;5.18;1.45;;;15.60;86.20;;;;;;4556708;25;20008;-48
2024/04/21 05:31:51;;;;;;;3.38;0.98;;;15.60;85.70;;;;;;4554984;25;20016;-50
2024/04/21 05:34:36;;;;;;;4.60;1.70;;;15.80;85.60;;;;;;4555319;25;20005;-47
2024/04/21 05:37:16;;;;;;;4.00;0.93;;;15.90;84.90;;;;;;4558147;25;20089;-50
2024/04/21 05:40:00;;;;;;;5.83;1.20;;;16.00;84.40;;;;;;4558065;25;20058;-49
2024/04/21 05:42:43;;;;;;;7.45;1.10;;;16.10;83.90;;;;;;4556553;25;20015;-50
2024/04/21 05:45:26;;;;;;;2.92;1.35;;;16.20;83.00;;;;;;4559426;25;20073;-49
2024/04/21 05:48:07;;;;;;;3.75;1.88;;;16.30;82.20;;;;;;4559429;25;20073;-49
2024/04/21 05:50:50;;;;;;;4.38;1.65;;;16.30;81.50;;;;;;4560373;25;20016;-49
2024/04/21 05:53:30;;;;;;;4.72;2.75;;;16.40;81.10;;;;;;4560278;25;20047;-50
2024/04/21 05:56:13;;;;;;;3.10;1.88;;;16.40;81.10;;;;;;4557729;25;20007;-54
2024/04/21 05:58:56;;;;;;;4.13;1.30;;;16.50;81.00;;;;;;4555319;25;20356;-54
2024/04/21 06:01:39;;;;;;;6.47;1.15;;;16.50;80.70;;;;;;4547211;26;20016;-53
2024/04/21 06:04:19;;;;;;;3.47;1.50;;;16.50;80.20;;;;;;4559540;26;20015;-55
2024/04/21 06:07:02;;;;;;;7.07;1.85;;;16.50;80.20;;;;;;4546342;25;20072;-52
2024/04/21 06:09:44;;;;;;;5.20;1.15;;;16.60;81.00;;;;;;4559262;25;20073;-50
2024/04/21 06:12:27;;;;;;;4.03;1.33;;;16.60;80.70;;;;;;4554279;25;20135;-52
2024/04/21 06:15:13;;;;;;;7.38;1.55;;;16.60;79.80;;;;;;4556096;26;20448;-47
2024/04/21 06:17:53;;;;;;;3.03;1.20;;;16.70;79.00;;;;;;4558442;26;20344;-48
2024/04/21 06:20:37;;;;;;;2.78;1.33;;;16.70;79.80;;;;;;4528175;26;20074;-52
2024/04/21 06:23:17;;;;;;;9.15;1.23;;;16.80;78.50;;;;;;4550536;25;20008;-52
2024/04/21 06:26:00;;;;;;;9.10;1.45;;;16.80;78.40;;;;;;4558934;25;20033;-51
2024/04/21 06:28:40;;;;;;;3.40;1.30;;;16.90;78.30;;;;;;4557924;25;20007;-53
2024/04/21 06:31:25;;;;;;;6.00;1.55;;;16.90;77.90;;;;;;4557303;25;20131;-50
2024/04/21 06:34:05;;;;;;;5.30;1.70;;;16.90;78.30;;;;;;4559790;25;20500;-50
2024/04/21 06:36:49;;;;;;;3.20;1.00;;;17.00;80.60;;;;;;4558144;25;20010;-48
2024/04/21 06:39:29;;;;;;;4.05;1.30;;;17.00;79.70;;;;;;4559579;25;20020;-48
2024/04/21 06:42:12;;;;;;;3.47;1.50;;;17.00;78.60;;;;;;4528414;26;20017;-47
2024/04/21 06:44:52;;;;;;;1.95;1.48;;;16.90;79.20;;;;;;4525568;26;20448;-48
2024/04/21 06:47:37;;;;;;;2.45;1.17;;;16.80;77.60;;;;;;4537587;25;20331;-47
2024/04/21 06:50:18;;;;;;;4.10;1.30;;;16.80;75.60;;;;;;4548306;25;20424;-51
2024/04/21 06:53:01;;;;;;;4.50;1.65;;;16.70;77.00;;;;;;4558669;25;20012;-51
2024/04/21 06:55:41;;;;;;;3.03;1.40;;;16.60;76.50;;;;;;4557694;25;20494;-49
2024/04/21 06:58:25;;;;;;;2.60;1.52;;;16.50;75.00;;;;;;4549856;25;20059;-47
2024/04/21 07:01:07;;;;;;;5.35;1.73;;;16.40;75.10;;;;;;4556343;25;20017;-49
2024/04/21 07:03:50;;;;;;;1.90;1.20;;;16.30;76.50;;;;;;4558859;25;20080;-49
2024/04/21 07:06:33;;;;;;;6.00;1.38;;;16.20;75.10;;;;;;4539270;25;20440;-49
2024/04/21 07:09:14;;;;;;;2.35;1.48;;;16.20;76.40;;;;;;4554989;25;20016;-47
2024/04/21 07:11:56;;;;;;;2.80;1.40;;;16.10;77.50;;;;;;4558288;25;20341;-46
2024/04/21 07:14:37;;;;;;;1.15;1.10;;;16.00;75.80;;;;;;4556306;25;20024;-45
2024/04/21 07:17:20;;;;;;;2.15;1.70;;;16.00;74.80;;;;;;4532924;26;20445;-46
2024/04/21 07:20:04;;;;;;;4.28;1.58;;;15.90;73.90;;;;;;4540796;26;20042;-47
2024/04/21 07:22:47;;;;;;;2.58;1.50;;;15.80;74.30;;;;;;4559681;25;20362;-47
2024/04/21 07:25:27;;;;;;;2.03;1.83;;;15.80;74.30;;;;;;4555091;26;20016;-46
2024/04/21 07:28:10;;;;;;;2.83;1.70;;;15.70;73.80;;;;;;4548330;25;20403;-46
2024/04/21 07:30:52;;;;;;;1.80;1.70;;;15.70;74.10;;;;;;4558828;25;20285;-46
2024/04/21 07:33:33;;;;;;;2.53;1.67;;;15.60;73.80;;;;;;4559147;25;20335;-47
2024/04/21 07:36:19;;;;;;;1.73;1.50;;;15.50;75.60;;;;;;4549467;25;20046;-47
2024/04/21 07:39:00;;;;;;;1.70;1.45;;;15.50;75.30;;;;;;4545331;25;20071;-47
2024/04/21 07:41:43;;;;;;;3.30;1.42;;;15.40;75.70;;;;;;4558585;25;20012;-49
2024/04/21 07:44:24;;;;;;;1.85;1.30;;;15.40;75.60;;;;;;4554623;25;20087;-47
2024/04/21 07:47:07;;;;;;;2.05;1.70;;;15.40;74.90;;;;;;4557697;25;20012;-46
2024/04/21 07:49:48;;;;;;;3.53;1.67;;;15.30;75.30;;;;;;4503203;26;20078;-45
2024/04/21 07:52:35;;;;;;;2.33;1.42;;;15.20;74.90;;;;;;4526113;26;20008;-54
2024/04/21 07:55:15;;;;;;;1.35;1.25;;;15.20;75.10;;;;;;4541629;25;20033;-50
2024/04/21 07:57:59;;;;;;;1.45;1.35;;;15.10;75.00;;;;;;4553512;25;20073;-49
2024/04/21 08:00:39;;;;;;;1.77;1.55;;;15.10;75.60;;;;;;4558696;25;20037;-46
2024/04/21 08:03:22;;;;;;;1.85;1.52;;;15.10;75.10;;;;;;4558092;25;20079;-47
2024/04/21 08:06:02;;;;;;;1.50;1.40;;;15.10;75.10;;;;;;4558725;25;20057;-47
2024/04/21 08:08:48;;;;;;;2.40;1.40;;;15.00;74.30;;;;;;4525188;26;20374;-50
2024/04/21 08:11:33;;;;;;;1.70;1.60;;;15.10;74.30;;;;;;4527176;26;20072;-47
2024/04/21 08:14:16;;;;;;;1.58;1.48;;;15.00;73.90;;;;;;4553417;25;20012;-48
2024/04/21 08:16:57;;;;;;;1.77;1.55;;;15.00;74.20;;;;;;4555595;25;20402;-49
2024/04/21 08:19:39;;;;;;;1.95;1.30;;;15.00;74.50;;;;;;4558108;25;20074;-47
2024/04/21 08:22:20;;;;;;;1.77;1.30;;;15.00;73.90;;;;;;4555354;25;20325;-51
2024/04/21 08:25:06;;;;;;;2.65;1.40;;;15.00;73.10;;;;;;4551036;25;20009;-52
2024/04/21 08:27:46;;;;;;;1.98;1.88;;;15.00;73.90;;;;;;4556261;25;20007;-51
2024/04/21 08:30:29;;;;;;;2.30;1.60;;;15.00;73.70;;;;;;4557150;25;20016;-52
2024/04/21 08:33:09;;;;;;;1.65;1.52;;;15.00;73.40;;;;;;4557003;26;20016;-51
2024/04/21 08:35:55;;;;;;;1.80;1.50;;;15.00;72.90;;;;;;4526321;26;20078;-52
2024/04/21 08:38:36;;;;;;;1.60;1.50;;;15.00;73.40;;;;;;4557156;25;20008;-51
2024/04/21 08:41:24;;;;;;;1.45;1.35;;;15.00;73.30;;;;;;4557677;25;20324;-51
2024/04/21 08:44:06;;;;;;;1.55;1.45;;;15.00;73.70;;;;;;4556460;25;20008;-54
2024/04/21 08:46:51;;;;;;;2.03;1.50;;;15.00;73.90;;;;;;4557007;25;20081;-54
2024/04/21 08:49:33;;;;;;;1.98;1.70;;;15.00;74.50;;;;;;4553873;25;20016;-55
2024/04/21 08:52:18;;;;;;;1.50;1.40;;;15.00;75.00;;;;;;4556771;25;20016;-50
2024/04/21 08:54:59;;;;;;;2.10;1.90;;;15.00;74.90;;;;;;4557392;25;20344;-52
2024/04/21 08:57:45;;;;;;;1.75;1.65;;;15.00;73.80;;;;;;4557181;25;20016;-53
2024/04/21 09:00:26;;;;;;;2.50;1.67;;;15.00;75.00;;;;;;4557078;25;20016;-55
2024/04/21 09:03:09;;;;;;;;;;;15.00;74.40;;;;;;4548797;25;20069;-53
2024/04/21 09:05:52;;;;;;;1.50;1.48;;;15.10;74.10;;;;;;4517497;26;19931;-50
2024/04/21 09:08:35;;;;;;;1.40;1.30;;;15.10;74.80;;;;;;4557526;25;20053;-54
2024/04/21 09:11:16;;;;;;;1.40;1.30;;;15.00;73.70;;;;;;4571450;25;20007;-53
2024/04/21 09:14:01;;;;;;;1.77;1.67;;;15.10;74.70;;;;;;4559637;25;20016;-53
2024/04/21 09:16:41;;;;;;;1.48;1.38;;;15.00;74.80;;;;;;4566000;25;20007;-53
2024/04/21 09:19:24;;;;;;;1.88;1.70;;;15.00;74.30;;;;;;4554061;25;20012;-53
2024/04/21 09:22:05;;;;;;;2.47;1.50;;;15.10;73.40;;;;;;4554777;25;20028;-47
2024/04/21 09:24:51;;;;;;;1.48;1.38;;;15.10;73.20;;;;;;4550549;25;20136;-48
2024/04/21 09:27:32;;;;;;;1.70;1.60;;;15.00;73.30;;;;;;4552476;25;20008;-47
2024/04/21 09:30:18;;;;;;;;;;;15.00;74.40;;;;;;4557036;25;20378;-47
2024/04/21 09:32:58;;;;;;;1.92;1.52;;;15.10;75.40;;;;;;4537019;25;20340;-46
2024/04/21 09:35:42;;;;;;;1.38;1.27;;;15.10;74.20;;;;;;4554796;25;20008;-48
2024/04/21 09:38:25;;;;;;;2.08;1.63;;;15.10;73.60;;;;;;4549853;25;20009;-46
2024/04/21 09:41:08;;;;;;;2.03;1.15;;;15.10;72.50;;;;;;4556010;25;20012;-47
2024/04/21 09:43:53;;;;;;;1.35;1.25;;;15.20;72.10;;;;;;4556867;25;20019;-48
2024/04/21 09:46:37;;;;;;;1.65;1.20;;;15.20;71.40;;;;;;4556123;25;20017;-46
2024/04/21 09:49:21;;;;;;;1.73;1.50;;;15.20;71.50;;;;;;4559329;25;20042;-50
2024/04/21 09:52:02;;;;;;;1.63;1.20;;;15.20;71.40;;;;;;4548680;25;20069;-50
2024/04/21 09:54:46;;;;;;;1.13;1.02;;;15.20;71.50;;;;;;4556172;25;20012;-51
2024/04/21 09:57:29;;;;;;;1.25;0.90;;;15.20;71.10;;;;;;4554396;25;20013;-50
2024/04/21 10:00:12;;;;;;;1.25;1.15;;;15.20;70.30;;;;;;4545038;25;20346;-52
2024/04/21 10:03:00;;;;;;;1.33;1.33;;;15.20;69.80;;;;;;4555788;25;20051;-47
2024/04/21 10:05:41;;;;;;;1.27;1.27;;;15.10;71.40;;;;;;4558097;25;20016;-49
2024/04/21 10:08:24;;;;;;;;;;;15.10;71.80;;;;;;4557122;25;20016;-51
2024/04/21 10:11:05;;;;;;;0.77;0.77;;;15.10;72.30;;;;;;4557127;25;19996;-51
2024/04/21 10:13:49;;;;;;;1.58;1.20;;;15.00;72.10;;;;;;4533448;25;20008;-51
2024/04/21 10:16:30;;;;;;;3.20;1.25;;;15.00;71.90;;;;;;4551588;25;20043;-49
2024/04/21 10:19:24;;;;;;;1.63;1.10;;;15.00;71.50;;;;;;4557096;25;20415;-50
2024/04/21 10:22:04;;;;;;;1.30;1.20;;;15.00;73.40;;;;;;4555377;25;20007;-49
2024/04/21 10:24:47;;;;;;;2.00;1.80;;;15.00;72.50;;;;;;4556474;25;20017;-49
2024/04/21 10:27:28;;;;;;;1.25;1.20;;;15.00;72.40;;;;;;4557837;25;20008;-51
2024/04/21 10:30:14;;;;;;;1.20;1.20;;;15.00;71.30;;;;;;4557187;25;20409;-49
2024/04/21 10:32:58;;;;;;;1.20;1.20;;;14.90;70.90;;;;;;4556846;25;20081;-47
2024/04/21 10:35:44;;;;;;;1.50;1.40;;;14.90;71.20;;;;;;4581886;25;20019;-48
2024/04/21 10:38:25;;;;;;;1.27;1.20;;;14.90;71.40;;;;;;4537175;25;20402;-48
2024/04/21 10:41:10;;;;;;;1.83;1.40;;;14.90;72.00;;;;;;4560935;25;20456;-50
2024/04/21 10:43:51;;;;;;;1.48;1.38;;;14.90;72.50;;;;;;4557390;25;20448;-54
2024/04/21 10:46:36;;;;;;;1.98;1.23;;;14.80;71.40;;;;;;4554777;25;20073;-48
2024/04/21 10:49:17;;;;;;;1.30;1.30;;;14.80;71.90;;;;;;4556952;25;20085;-49
2024/04/21 10:52:02;;;;;;;1.55;1.35;;;14.80;72.00;;;;;;4557662;25;20012;-47
2024/04/21 10:54:43;;;;;;;1.27;1.17;;;14.80;73.40;;;;;;4550051;25;20086;-50
2024/04/21 10:57:25;;;;;;;1.55;1.10;;;14.80;74.20;;;;;;4556811;25;20013;-47
2024/04/21 11:00:10;;;;;;;0.70;0.70;;;14.80;75.50;;;;;;4557659;25;20436;-47
2024/04/21 11:02:53;;;;;;;1.38;1.27;;;14.80;74.50;;;;;;4557090;25;20016;-47
2024/04/21 11:05:42;;;;;;;2.03;1.13;;;14.80;72.70;;;;;;4556983;25;20065;-50
2024/04/21 11:08:28;;;;;;;1.58;1.48;;;14.80;72.10;;;;;;4581162;25;20015;-46
2024/04/21 11:11:08;;;;;;;1.38;1.27;;;14.90;70.80;;;;;;4556770;25;20344;-50
2024/04/21 11:13:52;;;;;;;1.52;1.23;;;14.90;70.50;;;;;;4557046;25;20046;-48
2024/04/21 11:16:33;;;;;;;1.42;1.30;;;14.90;68.90;;;;;;4557386;25;20016;-48
2024/04/21 11:19:16;;;;;;;1.20;1.15;;;14.90;68.60;;;;;;4529559;26;20798;-47
2024/04/21 11:21:56;;;;;;;2.00;1.60;;;14.90;68.60;;;;;;4551077;25;20011;-47
2024/04/21 11:24:42;;;;;;;1.38;1.27;;;14.90;69.10;;;;;;4560260;25;20332;-46
2024/04/21 11:27:22;;;;;;;2.05;1.30;;;14.90;68.80;;;;;;4560111;25;20015;-47
2024/04/21 11:30:05;;;;;;;1.95;1.40;;;14.90;68.10;;;;;;4537565;25;20012;-46
2024/04/21 11:32:46;;;;;;;2.10;1.35;;;14.90;69.30;;;;;;4559998;25;20505;-48
2024/04/21 11:35:29;;;;;;;1.58;1.40;;;14.90;70.10;;;;;;4553227;25;20089;-47
2024/04/21 11:38:10;;;;;;;1.20;1.20;;;14.90;71.20;;;;;;4558792;26;20486;-47
2024/04/21 11:40:58;;;;;;;1.50;1.40;;;14.90;71.50;;;;;;4559885;25;20779;-48
2024/04/21 11:43:38;;;;;;;2.05;1.80;;;14.90;70.30;;;;;;4559291;25;20522;-46
2024/04/21 11:46:21;;;;;;;1.90;1.40;;;15.00;70.20;;;;;;4560686;25;20077;-47
2024/04/21 11:49:02;;;;;;;1.58;1.48;;;14.90;69.70;;;;;;4563252;25;20070;-47
2024/04/21 11:51:45;;;;;;;1.77;1.67;;;14.90;70.00;;;;;;4562810;25;20050;-47
2024/04/21 11:54:26;;;;;;;1.92;1.33;;;14.90;71.40;;;;;;4562594;25;20497;-47
2024/04/21 11:57:11;;;;;;;2.55;1.60;;;15.00;73.60;;;;;;4561141;25;20070;-46
2024/04/21 11:59:52;;;;;;;2.08;1.60;;;15.00;70.90;;;;;;4562482;25;20016;-47
2024/04/21 12:02:35;;;;;;;1.85;1.75;;;15.00;69.60;;;;;;4552582;25;20039;-46
2024/04/21 12:05:15;;;;;;;1.77;1.67;;;15.00;71.80;;;;;;4561669;25;20049;-47
2024/04/21 12:07:58;;;;;;;1.65;1.33;;;15.00;72.00;;;;;;4562053;25;20328;-50
2024/04/21 12:10:39;;;;;;;1.63;1.52;;;15.00;69.60;;;;;;4560041;25;20008;-48
2024/04/21 12:13:24;;;;;;;2.03;1.83;;;15.00;68.90;;;;;;4561792;25;20020;-48
2024/04/21 12:16:05;;;;;;;1.77;1.67;;;15.00;68.30;;;;;;4562095;25;20013;-49
2024/04/21 12:18:48;;;;;;;2.20;1.70;;;15.00;69.50;;;;;;4560848;25;20070;-48
2024/04/21 12:21:33;;;;;;;1.63;1.52;;;14.90;71.10;;;;;;4562680;25;20080;-47
2024/04/21 12:24:13;;;;;;;1.75;1.65;;;14.90;69.10;;;;;;4558381;25;20016;-49
2024/04/21 12:26:56;;;;;;;1.55;1.45;;;14.90;68.20;;;;;;4542650;25;20015;-46
2024/04/21 12:29:39;;;;;;;2.45;1.90;;;14.90;68.50;;;;;;4561991;25;20012;-47
2024/04/21 12:32:22;;;;;;;2.55;1.40;;;14.80;68.40;;;;;;4548945;25;20059;-48
2024/04/21 12:35:02;;;;;;;1.60;1.50;;;14.80;68.80;;;;;;4547363;25;20016;-46
2024/04/21 12:37:45;;;;;;;1.48;1.48;;;14.80;69.50;;;;;;4561924;25;20042;-47
2024/04/21 12:40:28;;;;;;;1.10;1.10;;;14.80;69.00;;;;;;4562260;25;20062;-46
2024/04/21 12:43:10;;;;;;;1.90;1.60;;;14.80;69.40;;;;;;4561691;25;20073;-46
2024/04/21 12:45:55;;;;;;;3.40;1.50;;;14.80;68.10;;;;;;4559939;25;20016;-50
2024/04/21 12:48:35;;;;;;;2.25;1.60;;;14.80;68.30;;;;;;4512079;25;20021;-46
2024/04/21 12:51:18;;;;;;;1.48;1.45;;;14.80;68.90;;;;;;4554366;25;20016;-47
2024/04/21 12:53:59;;;;;;;1.80;1.58;;;14.80;68.30;;;;;;4546166;25;20012;-46
2024/04/21 12:56:41;;;;;;;1.50;1.40;;;14.80;70.00;;;;;;4557361;25;20016;-46
2024/04/21 12:59:22;;;;;;;1.63;1.52;;;14.90;71.30;;;;;;4529982;26;20020;-44
2024/04/21 13:02:08;;;;;;;1.40;1.30;;;15.20;72.40;;;;;;4530860;26;20074;-46
2024/04/21 13:04:49;;;;;;;1.52;1.42;;;15.60;71.00;;;;;;4561054;25;20042;-46
2024/04/21 13:07:32;;;;;;;1.27;1.27;;;16.00;68.40;;;;;;4560314;25;20012;-46
2024/04/21 13:10:12;;;;;;;1.50;1.40;;;16.40;65.00;;;;;;4560379;25;20042;-46
2024/04/21 13:12:55;;;;;;;1.10;1.10;;;16.80;62.80;;;;;;4561655;25;20042;-48
2024/04/21 13:15:35;;;;;;;1.35;1.20;;;17.10;62.70;;;;;;4529689;26;20016;-52
2024/04/21 13:18:21;;;;;;;4.30;1.50;;;17.40;61.60;;;;;;4551991;25;20077;-51
2024/04/21 13:21:01;;;;;;;2.20;1.60;;;17.50;62.40;;;;;;4530944;26;20012;-49
2024/04/21 13:23:43;;;;;;;1.23;1.23;;;17.60;62.70;;;;;;4543901;25;20033;-51
2024/04/21 13:26:24;;;;;;;1.70;1.60;;;17.60;63.30;;;;;;4561203;25;20397;-49
2024/04/21 13:29:07;;;;;;;2.00;1.40;;;17.60;63.30;;;;;;4548423;25;20016;-46
2024/04/21 13:31:47;;;;;;;2.13;2.03;;;17.60;64.10;;;;;;4556201;25;20016;-50
2024/04/21 13:34:32;;;;;;;3.42;1.52;;;17.50;65.20;;;;;;4558660;25;20017;-50
2024/04/21 13:37:15;;;;;;;1.70;1.60;;;17.50;65.90;;;;;;4561745;25;20027;-48
2024/04/21 13:39:56;;;;;;;1.67;1.50;;;17.40;64.50;;;;;;4561374;25;20011;-48
2024/04/21 13:42:39;;;;;;;1.95;1.85;;;17.40;64.40;;;;;;4551080;25;20008;-49
2024/04/21 13:45:19;;;;;;;2.28;2.08;;;17.50;64.90;;;;;;4543909;25;20452;-48
2024/04/21 13:48:02;;;;;;;1.92;1.75;;;17.50;64.80;;;;;;4558802;25;20500;-47
2024/04/21 13:50:45;;;;;;;1.83;1.73;;;17.60;64.90;;;;;;4530768;26;20095;-46
2024/04/21 13:53:28;;;;;;;2.83;1.90;;;17.60;65.70;;;;;;4531305;26;20098;-46
2024/04/21 13:56:13;;;;;;;1.67;1.58;;;17.60;66.20;;;;;;4531268;26;20058;-47
2024/04/21 13:58:53;;;;;;;1.95;1.85;;;17.50;66.70;;;;;;4542078;25;20026;-46
2024/04/21 14:01:36;;;;;;;2.20;1.67;;;17.60;67.10;;;;;;4528875;26;20017;-48
2024/04/21 14:04:16;;;;;;;2.13;2.03;;;17.50;66.90;;;;;;4528090;26;20078;-46
2024/04/21 14:07:02;;;;;;;1.70;1.60;;;17.60;66.70;;;;;;4530993;26;20076;-47